Time;durP1;ratioP1;P1;durP2;ratioP2;P2;SDS_P1;SDS_P2;PMS_P1;PMS_P2;Temp;Humidity;BMP_temperature;BMP_pressure;BME280_temperature;BME280_humidity;BME280_pressure;Samples;Min_cycle;Max_cycle;Signal;HPM_P1;HPM_P2
2023/05/14 00:02:23;;;;;;;5.40;4.90;;;;;;;;;;5033357;28;20116;-78
2023/05/14 00:04:49;;;;;;;7.85;5.25;;;;;;;;;;5032626;28;20056;-77
2023/05/14 00:07:15;;;;;;;5.25;4.75;;;;;;;;;;5036814;28;20356;-77
2023/05/14 00:09:41;;;;;;;6.28;4.72;;;;;;;;;;5033292;28;20023;-77
2023/05/14 00:12:06;;;;;;;4.93;4.38;;;;;;;;;;5033987;28;20116;-78
2023/05/14 00:14:32;;;;;;;6.60;5.20;;;;;;;;;;5033509;28;20028;-77
2023/05/14 00:16:58;;;;;;;5.07;4.30;;;;;;;;;;5028784;28;20075;-77
2023/05/14 00:19:24;;;;;;;5.40;4.78;;;;;;;;;;5035656;28;20560;-78
2023/05/14 00:21:49;;;;;;;4.78;4.38;;;;;;;;;;5050427;28;20021;-77
2023/05/14 00:24:15;;;;;;;5.03;4.30;;;;;;;;;;5039002;28;20029;-79
2023/05/14 00:26:40;;;;;;;5.53;4.60;;;;;;;;;;5030320;28;20456;-78
2023/05/14 00:29:06;;;;;;;4.93;4.45;;;;;;;;;;5039359;28;20047;-79
2023/05/14 00:31:31;;;;;;;4.63;4.10;;;;;;;;;;5039548;28;20040;-79
2023/05/14 00:33:56;;;;;;;4.55;4.15;;;;;;;;;;5025829;28;20387;-77
2023/05/14 00:36:22;;;;;;;4.18;3.78;;;;;;;;;;5032179;28;20548;-77
2023/05/14 00:38:48;;;;;;;5.80;4.50;;;;;;;;;;5029887;28;20032;-78
2023/05/14 00:41:13;;;;;;;4.88;4.18;;;;;;;;;;5039194;28;20108;-79
2023/05/14 00:43:38;;;;;;;5.93;4.57;;;;;;;;;;5029773;28;20700;-78
2023/05/14 00:46:04;;;;;;;3.67;3.28;;;;;;;;;;5028238;28;20029;-78
2023/05/14 00:48:30;;;;;;;7.30;4.60;;;;;;;;;;5024002;28;20573;-78
2023/05/14 00:50:55;;;;;;;5.10;4.60;;;;;;;;;;5028132;28;20028;-78
2023/05/14 00:53:21;;;;;;;5.40;4.75;;;;;;;;;;5037175;28;20031;-79
2023/05/14 00:55:48;;;;;;;4.97;4.47;;;;;;;;;;5028406;28;20063;-79
2023/05/14 00:58:13;;;;;;;2.60;2.40;;;;;;;;;;5032603;28;20036;-79
2023/05/14 01:00:40;;;;;;;5.00;4.50;;;;;;;;;;5028096;28;20021;-78
2023/05/14 01:03:07;;;;;;;2.85;2.65;;;;;;;;;;5036816;28;20114;-78
2023/05/14 01:06:05;;;;;;;6.50;5.55;;;;;;;;;;5033946;28;20026;-77
2023/05/14 01:09:01;;;;;;;5.85;5.07;;;;;;;;;;5051349;28;20109;-79
2023/05/14 01:12:05;;;;;;;5.65;4.72;;;;;;;;;;5051397;28;20051;-77
2023/05/14 01:14:44;;;;;;;6.95;5.63;;;;;;;;;;5011515;28;20603;-80
2023/05/14 01:17:12;;;;;;;7.32;6.05;;;;;;;;;;5032073;28;20025;-80
2023/05/14 01:19:42;;;;;;;6.60;5.25;;;;;;;;;;5035744;28;20026;-79
2023/05/14 01:22:08;;;;;;;5.95;5.35;;;;;;;;;;5034480;28;20021;-78
2023/05/14 01:24:34;;;;;;;5.38;4.53;;;;;;;;;;5039626;28;20033;-78
2023/05/14 01:27:23;;;;;;;6.22;5.38;;;;;;;;;;5034392;28;20021;-78
2023/05/14 01:30:07;;;;;;;7.05;6.15;;;;;;;;;;5025770;28;20648;-78
2023/05/14 01:32:32;;;;;;;5.22;4.68;;;;;;;;;;5020745;28;20438;-79
2023/05/14 01:35:00;;;;;;;2.70;2.50;;;;;;;;;;5037012;28;20528;-80
2023/05/14 01:37:27;;;;;;;5.55;4.68;;;;;;;;;;5032814;28;20243;-81
2023/05/14 01:39:54;;;;;;;5.25;4.75;;;;;;;;;;5036668;28;20412;-79
2023/05/14 01:42:19;;;;;;;6.45;5.07;;;;;;;;;;5031138;28;20032;-81
2023/05/14 01:44:45;;;;;;;5.72;4.97;;;;;;;;;;5026194;28;20022;-80
2023/05/14 01:47:10;;;;;;;5.40;4.90;;;;;;;;;;5031915;28;20029;-79
2023/05/14 01:49:36;;;;;;;6.75;5.60;;;;;;;;;;5037536;28;20020;-80
2023/05/14 01:52:01;;;;;;;7.78;5.30;;;;;;;;;;5033238;28;20028;-78
2023/05/14 01:54:26;;;;;;;7.85;5.63;;;;;;;;;;5036793;28;20478;-79
2023/05/14 01:56:52;;;;;;;5.53;4.82;;;;;;;;;;5035369;28;20417;-81
2023/05/14 01:59:17;;;;;;;6.18;4.82;;;;;;;;;;5043733;28;20013;-79
2023/05/14 02:01:43;;;;;;;7.47;5.55;;;;;;;;;;5039865;28;20055;-78
2023/05/14 02:04:08;;;;;;;5.72;5.00;;;;;;;;;;5042981;28;20090;-78
2023/05/14 02:06:33;;;;;;;6.38;5.40;;;;;;;;;;5042393;28;20055;-77
2023/05/14 02:08:59;;;;;;;6.07;4.82;;;;;;;;;;5036508;28;20021;-79
2023/05/14 02:11:25;;;;;;;6.38;5.05;;;;;;;;;;5038200;28;20899;-82
2023/05/14 02:13:50;;;;;;;6.18;5.38;;;;;;;;;;5033503;28;20077;-82
2023/05/14 02:16:15;;;;;;;9.70;6.28;;;;;;;;;;5037908;28;20083;-81
2023/05/14 02:18:41;;;;;;;8.80;6.80;;;;;;;;;;5046686;28;20634;-80
2023/05/14 02:21:06;;;;;;;8.25;6.80;;;;;;;;;;5035757;28;20048;-81
2023/05/14 02:23:32;;;;;;;7.07;5.72;;;;;;;;;;5038021;28;20024;-79
2023/05/14 02:25:57;;;;;;;10.23;7.97;;;;;;;;;;5059838;28;20076;-79
2023/05/14 02:28:22;;;;;;;10.82;8.18;;;;;;;;;;5060149;28;20108;-78
2023/05/14 02:30:48;;;;;;;9.82;7.45;;;;;;;;;;5038387;28;20386;-80
2023/05/14 02:33:13;;;;;;;7.57;5.90;;;;;;;;;;5028712;28;20032;-80
2023/05/14 02:35:38;;;;;;;5.03;4.18;;;;;;;;;;5034825;28;20028;-86
2023/05/14 02:38:04;;;;;;;6.50;5.75;;;;;;;;;;5036817;28;20024;-82
2023/05/14 02:40:30;;;;;;;11.15;7.35;;;;;;;;;;5043245;28;20021;-83
2023/05/14 02:42:55;;;;;;;12.27;7.93;;;;;;;;;;5051352;28;20028;-84
2023/05/14 02:45:20;;;;;;;17.38;10.77;;;;;;;;;;5030706;28;20026;-85
2023/05/14 02:47:46;;;;;;;13.27;9.82;;;;;;;;;;5029111;28;20115;-83
2023/05/14 02:50:11;;;;;;;24.30;15.48;;;;;;;;;;5040824;28;20048;-83
2023/05/14 02:52:37;;;;;;;11.55;8.50;;;;;;;;;;5035062;28;20068;-81
2023/05/14 02:55:03;;;;;;;8.32;6.97;;;;;;;;;;5036477;28;20026;-82
2023/05/14 02:57:28;;;;;;;7.47;6.55;;;;;;;;;;5029794;28;20033;-81
2023/05/14 02:59:54;;;;;;;10.30;8.27;;;;;;;;;;5035116;28;20033;-82
2023/05/14 03:02:19;;;;;;;9.98;7.85;;;;;;;;;;5039945;28;20029;-81
2023/05/14 03:04:45;;;;;;;8.50;6.85;;;;;;;;;;5037705;28;20043;-81
2023/05/14 03:07:10;;;;;;;8.88;6.93;;;;;;;;;;5038790;28;20014;-81
2023/05/14 03:09:36;;;;;;;11.90;8.35;;;;;;;;;;5050915;28;20039;-81
2023/05/14 03:12:01;;;;;;;9.07;7.20;;;;;;;;;;5025420;28;20048;-80
2023/05/14 03:14:27;;;;;;;12.80;8.18;;;;;;;;;;5035868;28;20171;-80
2023/05/14 03:16:52;;;;;;;9.38;5.97;;;;;;;;;;5033240;28;20033;-80
2023/05/14 03:19:17;;;;;;;7.15;5.78;;;;;;;;;;5034145;28;20068;-81
2023/05/14 03:21:43;;;;;;;8.77;6.43;;;;;;;;;;5034127;28;20037;-81
2023/05/14 03:24:08;;;;;;;8.40;6.20;;;;;;;;;;5053474;28;20025;-82
2023/05/14 03:26:34;;;;;;;7.25;5.55;;;;;;;;;;5036958;28;20032;-81
2023/05/14 03:28:59;;;;;;;6.68;5.35;;;;;;;;;;5030070;28;20017;-80
2023/05/14 03:31:25;;;;;;;8.80;6.10;;;;;;;;;;5037026;28;20033;-80
2023/05/14 03:33:50;;;;;;;7.05;5.50;;;;;;;;;;5038457;28;20029;-80
2023/05/14 03:36:16;;;;;;;6.07;5.47;;;;;;;;;;5040149;28;20021;-78
2023/05/14 03:38:41;;;;;;;6.07;5.45;;;;;;;;;;5042888;28;20052;-79
2023/05/14 03:41:07;;;;;;;6.95;5.47;;;;;;;;;;5034788;28;20040;-79
2023/05/14 03:43:32;;;;;;;5.70;4.68;;;;;;;;;;5034003;28;20033;-80
2023/05/14 03:45:58;;;;;;;7.93;5.53;;;;;;;;;;5041531;28;20739;-80
2023/05/14 03:48:24;;;;;;;4.90;3.90;;;;;;;;;;5028411;28;20033;-80
2023/05/14 03:50:50;;;;;;;6.90;5.90;;;;;;;;;;5036230;28;20021;-81
2023/05/14 03:53:15;;;;;;;5.35;4.82;;;;;;;;;;5039666;28;20500;-80
2023/05/14 03:55:41;;;;;;;5.80;5.20;;;;;;;;;;5032408;28;20030;-80
2023/05/14 03:58:12;;;;;;;6.60;5.18;;;;;;;;;;5028944;28;20671;-82
2023/05/14 04:00:37;;;;;;;;;;;;;;;;;;5028307;28;20029;-82
2023/05/14 04:03:03;;;;;;;6.57;4.90;;;;;;;;;;5027585;28;19913;-81
2023/05/14 04:05:28;;;;;;;5.18;4.50;;;;;;;;;;5027236;28;20124;-80
2023/05/14 04:07:54;;;;;;;6.80;5.07;;;;;;;;;;5034569;28;20025;-82
2023/05/14 04:10:19;;;;;;;6.93;4.68;;;;;;;;;;5031891;28;20088;-81
2023/05/14 04:12:45;;;;;;;6.50;4.15;;;;;;;;;;5035082;28;20393;-81
2023/05/14 04:15:10;;;;;;;7.03;4.80;;;;;;;;;;5020315;28;20071;-81
2023/05/14 04:17:36;;;;;;;5.75;5.00;;;;;;;;;;5036023;28;20058;-82
2023/05/14 04:20:01;;;;;;;5.88;5.28;;;;;;;;;;5028658;28;20018;-82
2023/05/14 04:22:27;;;;;;;6.75;4.80;;;;;;;;;;5041044;28;20029;-82
2023/05/14 04:24:52;;;;;;;6.63;5.10;;;;;;;;;;5031872;28;20022;-80
2023/05/14 04:27:21;;;;;;;6.15;4.70;;;;;;;;;;5028213;28;20386;-81
2023/05/14 04:29:47;;;;;;;5.45;4.60;;;;;;;;;;5026717;28;20129;-81
2023/05/14 04:32:13;;;;;;;5.88;5.05;;;;;;;;;;5030024;28;20100;-80
2023/05/14 04:34:39;;;;;;;7.85;5.38;;;;;;;;;;5029070;28;20117;-79
2023/05/14 04:37:04;;;;;;;6.60;4.88;;;;;;;;;;5033851;28;20283;-78
2023/05/14 04:39:29;;;;;;;5.97;5.18;;;;;;;;;;5027821;28;20072;-79
2023/05/14 04:41:55;;;;;;;6.25;5.03;;;;;;;;;;5034078;28;20037;-80
2023/05/14 04:44:20;;;;;;;5.80;5.20;;;;;;;;;;5032473;28;20048;-80
2023/05/14 04:46:45;;;;;;;6.35;5.38;;;;;;;;;;5033045;28;20240;-79
2023/05/14 04:49:11;;;;;;;5.95;5.32;;;;;;;;;;5026196;28;20052;-79
2023/05/14 04:51:38;;;;;;;7.28;5.95;;;;;;;;;;5028731;28;20106;-79
2023/05/14 04:54:03;;;;;;;6.93;5.43;;;;;;;;;;5033626;28;20438;-78
2023/05/14 04:56:28;;;;;;;8.40;5.30;;;;;;;;;;5038213;28;20119;-78
2023/05/14 04:58:54;;;;;;;7.72;5.78;;;;;;;;;;5032220;28;20116;-78
2023/05/14 05:01:21;;;;;;;7.53;6.05;;;;;;;;;;5027547;28;20366;-78
2023/05/14 05:03:46;;;;;;;2.92;2.72;;;;;;;;;;5030261;28;20061;-79
2023/05/14 05:06:11;;;;;;;3.03;2.72;;;;;;;;;;5023788;28;20444;-78
2023/05/14 05:08:37;;;;;;;4.30;3.70;;;;;;;;;;5020708;28;20065;-78
2023/05/14 05:11:03;;;;;;;6.07;5.40;;;;;;;;;;5035665;28;20094;-77
2023/05/14 05:13:28;;;;;;;6.97;5.35;;;;;;;;;;5029762;28;20034;-78
2023/05/14 05:15:53;;;;;;;6.45;5.75;;;;;;;;;;5029214;28;20064;-81
2023/05/14 05:18:19;;;;;;;7.65;5.70;;;;;;;;;;5022517;28;20741;-78
2023/05/14 05:20:44;;;;;;;6.75;5.55;;;;;;;;;;5020607;28;20032;-79
2023/05/14 05:23:10;;;;;;;6.45;5.57;;;;;;;;;;5028177;28;20478;-79
2023/05/14 05:25:35;;;;;;;2.65;2.45;;;;;;;;;;5031013;28;20032;-79
2023/05/14 05:28:00;;;;;;;4.32;3.88;;;;;;;;;;5021790;28;20041;-78
2023/05/14 05:30:26;;;;;;;6.32;5.63;;;;;;;;;;5020416;28;20029;-78
2023/05/14 05:32:51;;;;;;;7.50;5.63;;;;;;;;;;5025467;28;20041;-78
2023/05/14 05:35:17;;;;;;;6.22;5.40;;;;;;;;;;5023497;28;20030;-78
2023/05/14 05:37:44;;;;;;;2.72;2.47;;;;;;;;;;5018882;28;20033;-78
2023/05/14 05:40:09;;;;;;;4.85;4.32;;;;;;;;;;5019358;28;20078;-79
2023/05/14 05:42:35;;;;;;;4.90;4.35;;;;;;;;;;5024597;28;20029;-78
2023/05/14 05:45:00;;;;;;;3.53;2.88;;;;;;;;;;5019081;28;20108;-78
2023/05/14 05:47:26;;;;;;;2.30;2.10;;;;;;;;;;5018419;28;20041;-78
2023/05/14 05:49:52;;;;;;;3.75;2.35;;;;;;;;;;5023553;28;20025;-78
2023/05/14 05:52:18;;;;;;;8.48;5.25;;;;;;;;;;5020002;28;20160;-77
2023/05/14 05:54:43;;;;;;;6.15;4.82;;;;;;;;;;5024575;28;20127;-78
2023/05/14 05:57:09;;;;;;;4.10;3.30;;;;;;;;;;5027805;28;20045;-78
2023/05/14 05:59:38;;;;;;;6.90;6.13;;;;;;;;;;5033298;28;20084;-78
2023/05/14 06:02:03;;;;;;;9.43;6.35;;;;;;;;;;5018933;28;20036;-78
2023/05/14 06:04:29;;;;;;;3.00;2.63;;;;;;;;;;5026195;28;20029;-78
2023/05/14 06:06:54;;;;;;;7.65;6.63;;;;;;;;;;5018019;28;20036;-79
2023/05/14 06:09:20;;;;;;;8.88;6.18;;;;;;;;;;5035446;28;20064;-78
2023/05/14 06:11:45;;;;;;;7.63;6.30;;;;;;;;;;5032159;28;20120;-79
2023/05/14 06:14:10;;;;;;;7.15;6.20;;;;;;;;;;5025687;28;20029;-78
2023/05/14 06:16:36;;;;;;;9.00;6.80;;;;;;;;;;5026305;28;20118;-78
2023/05/14 06:19:01;;;;;;;6.85;6.18;;;;;;;;;;5037750;28;20034;-79
2023/05/14 06:21:27;;;;;;;5.95;5.35;;;;;;;;;;5039283;28;20025;-78
2023/05/14 06:23:52;;;;;;;7.38;6.28;;;;;;;;;;5031893;28;20040;-79
2023/05/14 06:26:17;;;;;;;8.32;6.88;;;;;;;;;;5044562;28;20112;-78
2023/05/14 06:28:43;;;;;;;6.18;4.47;;;;;;;;;;5058689;28;20021;-78
2023/05/14 06:31:09;;;;;;;8.80;6.53;;;;;;;;;;5051743;28;20028;-78
2023/05/14 06:33:34;;;;;;;5.75;4.85;;;;;;;;;;5062858;28;20031;-76
2023/05/14 06:36:03;;;;;;;11.05;6.80;;;;;;;;;;5043758;28;20149;-77
2023/05/14 06:38:29;;;;;;;8.30;6.50;;;;;;;;;;5035707;28;20045;-79
2023/05/14 06:40:54;;;;;;;6.68;4.28;;;;;;;;;;5044740;28;20031;-77
2023/05/14 06:43:20;;;;;;;10.63;6.90;;;;;;;;;;5046535;28;20041;-79
2023/05/14 06:45:51;;;;;;;12.73;6.88;;;;;;;;;;5039945;28;20036;-78
2023/05/14 06:48:18;;;;;;;7.72;6.93;;;;;;;;;;5054902;28;20029;-79
2023/05/14 06:50:47;;;;;;;8.63;5.68;;;;;;;;;;4980650;28;20037;-78
2023/05/14 06:53:13;;;;;;;4.25;3.85;;;;;;;;;;5040795;28;20033;-79
2023/05/14 06:55:39;;;;;;;9.13;6.97;;;;;;;;;;5057994;28;20108;-79
2023/05/14 06:58:08;;;;;;;8.35;6.40;;;;;;;;;;5039861;28;20076;-79
2023/05/14 07:00:33;;;;;;;21.58;6.57;;;;;;;;;;5053303;28;20391;-79
2023/05/14 07:02:59;;;;;;;8.85;7.53;;;;;;;;;;5040231;28;20025;-78
2023/05/14 07:05:25;;;;;;;8.35;7.07;;;;;;;;;;5041342;28;20061;-78
2023/05/14 07:07:50;;;;;;;8.63;6.47;;;;;;;;;;5042769;28;20028;-79
2023/05/14 07:10:15;;;;;;;9.75;6.97;;;;;;;;;;5036670;28;20390;-77
2023/05/14 07:12:41;;;;;;;8.02;6.75;;;;;;;;;;5038152;28;20033;-79
2023/05/14 07:15:07;;;;;;;7.93;7.13;;;;;;;;;;5052941;28;20025;-77
2023/05/14 07:17:32;;;;;;;10.02;6.93;;;;;;;;;;5036116;28;20025;-79
2023/05/14 07:19:58;;;;;;;8.65;7.15;;;;;;;;;;5037349;28;20532;-78
2023/05/14 07:22:23;;;;;;;9.70;6.95;;;;;;;;;;5042555;28;20022;-79
2023/05/14 07:24:49;;;;;;;7.53;6.72;;;;;;;;;;5036988;28;20040;-77
2023/05/14 07:27:15;;;;;;;10.38;7.68;;;;;;;;;;5039239;28;20034;-79
2023/05/14 07:29:41;;;;;;;9.85;6.88;;;;;;;;;;5050785;28;20109;-80
2023/05/14 07:32:06;;;;;;;8.98;7.10;;;;;;;;;;5052392;28;20092;-79
2023/05/14 07:34:32;;;;;;;8.20;6.88;;;;;;;;;;5036003;28;20034;-77
2023/05/14 07:36:57;;;;;;;8.02;5.50;;;;;;;;;;5041187;28;20026;-78
2023/05/14 07:39:23;;;;;;;10.15;7.47;;;;;;;;;;5043083;28;20118;-80
2023/05/14 07:41:49;;;;;;;8.25;6.88;;;;;;;;;;5041802;28;20535;-79
2023/05/14 07:44:14;;;;;;;8.38;6.80;;;;;;;;;;5040425;28;20032;-77
2023/05/14 07:46:39;;;;;;;4.32;3.60;;;;;;;;;;5033802;28;20054;-79
2023/05/14 07:49:05;;;;;;;7.63;6.22;;;;;;;;;;5038870;28;20025;-78
2023/05/14 07:51:32;;;;;;;6.43;5.75;;;;;;;;;;5030802;28;20032;-78
2023/05/14 07:53:57;;;;;;;7.45;6.43;;;;;;;;;;5045972;28;20030;-79
2023/05/14 07:56:23;;;;;;;9.70;7.28;;;;;;;;;;5032909;28;20105;-79
2023/05/14 07:58:50;;;;;;;7.65;6.47;;;;;;;;;;5034723;28;20124;-78
2023/05/14 08:01:16;;;;;;;3.28;3.00;;;;;;;;;;5030378;28;20029;-77
2023/05/14 08:03:41;;;;;;;8.18;6.93;;;;;;;;;;5030947;28;20021;-77
2023/05/14 08:06:07;;;;;;;9.25;7.18;;;;;;;;;;5027293;28;20278;-79
2023/05/14 08:08:32;;;;;;;9.18;6.57;;;;;;;;;;5035635;28;20032;-78
2023/05/14 08:10:58;;;;;;;7.55;6.10;;;;;;;;;;5030505;28;20688;-79
2023/05/14 08:13:24;;;;;;;7.82;6.40;;;;;;;;;;5046703;28;20116;-77
2023/05/14 08:15:50;;;;;;;6.47;5.88;;;;;;;;;;5040565;28;20038;-76
2023/05/14 08:18:15;;;;;;;6.82;5.82;;;;;;;;;;5027448;28;20029;-79
2023/05/14 08:20:40;;;;;;;6.63;5.90;;;;;;;;;;5033054;28;20025;-76
2023/05/14 08:23:08;;;;;;;7.18;6.30;;;;;;;;;;5036751;28;20025;-79
2023/05/14 08:25:33;;;;;;;8.38;5.93;;;;;;;;;;5034117;28;20678;-77
2023/05/14 08:27:59;;;;;;;6.45;5.75;;;;;;;;;;5030707;28;20034;-78
2023/05/14 08:30:26;;;;;;;6.82;5.20;;;;;;;;;;5027674;28;20041;-78
2023/05/14 08:32:51;;;;;;;6.15;5.50;;;;;;;;;;5031846;28;20029;-78
2023/05/14 08:35:17;;;;;;;5.57;4.85;;;;;;;;;;5037617;28;20107;-76
2023/05/14 08:37:43;;;;;;;5.35;4.85;;;;;;;;;;5029101;28;20502;-77
2023/05/14 08:40:09;;;;;;;5.07;4.63;;;;;;;;;;5026414;28;20021;-77
2023/05/14 08:42:39;;;;;;;4.25;3.75;;;;;;;;;;5032020;28;20112;-77
2023/05/14 08:45:06;;;;;;;5.13;4.57;;;;;;;;;;5032830;28;20542;-78
2023/05/14 08:47:32;;;;;;;10.70;4.95;;;;;;;;;;5048813;28;20063;-77
2023/05/14 08:50:07;;;;;;;4.07;3.65;;;;;;;;;;5022013;28;20037;-79
2023/05/14 08:52:33;;;;;;;5.00;4.50;;;;;;;;;;5026682;28;20100;-78
2023/05/14 08:55:01;;;;;;;6.55;5.20;;;;;;;;;;5032458;28;20021;-78
2023/05/14 08:57:28;;;;;;;6.05;4.97;;;;;;;;;;5027274;28;20032;-78
2023/05/14 08:59:54;;;;;;;4.72;4.32;;;;;;;;;;5023907;28;20022;-77
2023/05/14 09:02:23;;;;;;;4.97;4.47;;;;;;;;;;5030584;28;20163;-78
2023/05/14 09:04:56;;;;;;;5.20;4.47;;;;;;;;;;5026255;28;20642;-77
2023/05/14 09:07:22;;;;;;;7.78;6.78;;;;;;;;;;5026488;28;20034;-77
2023/05/14 09:09:48;;;;;;;5.75;4.43;;;;;;;;;;5027057;28;20057;-78
2023/05/14 09:12:14;;;;;;;7.18;5.22;;;;;;;;;;5027465;28;20033;-78
2023/05/14 09:14:39;;;;;;;5.53;4.65;;;;;;;;;;5025121;28;20025;-77
2023/05/14 09:17:05;;;;;;;5.50;4.95;;;;;;;;;;5028016;28;20026;-78
2023/05/14 09:19:30;;;;;;;5.72;5.15;;;;;;;;;;5026970;28;20382;-78
2023/05/14 09:21:57;;;;;;;5.53;5.00;;;;;;;;;;5023897;28;20057;-77
2023/05/14 09:24:30;;;;;;;5.13;4.63;;;;;;;;;;5024944;28;20663;-77
2023/05/14 09:26:57;;;;;;;6.05;4.75;;;;;;;;;;5030018;28;20025;-78
2023/05/14 09:29:28;;;;;;;4.95;4.50;;;;;;;;;;5028509;28;20030;-76
2023/05/14 09:31:58;;;;;;;4.57;4.18;;;;;;;;;;5025419;28;20045;-77
2023/05/14 09:34:32;;;;;;;5.20;4.70;;;;;;;;;;5026542;28;20029;-78
2023/05/14 09:37:03;;;;;;;6.45;4.65;;;;;;;;;;5025451;28;20037;-77
2023/05/14 09:39:29;;;;;;;7.53;5.20;;;;;;;;;;5029767;28;20033;-77
2023/05/14 09:41:55;;;;;;;5.90;5.35;;;;;;;;;;5027227;28;20038;-78
2023/05/14 09:44:21;;;;;;;6.43;5.82;;;;;;;;;;5025248;28;20096;-77
2023/05/14 09:46:48;;;;;;;4.70;4.30;;;;;;;;;;5028297;28;20029;-76
2023/05/14 09:49:13;;;;;;;4.95;4.53;;;;;;;;;;5030507;28;20525;-77
2023/05/14 09:51:39;;;;;;;9.15;6.25;;;;;;;;;;5025548;28;20037;-76
2023/05/14 09:54:06;;;;;;;5.47;4.78;;;;;;;;;;5024836;28;20049;-77
2023/05/14 09:56:33;;;;;;;7.07;4.78;;;;;;;;;;5019772;28;20018;-77
2023/05/14 09:58:58;;;;;;;4.28;3.95;;;;;;;;;;5031453;28;20480;-77
2023/05/14 10:01:25;;;;;;;4.47;3.88;;;;;;;;;;5028977;28;20041;-77
2023/05/14 10:03:55;;;;;;;4.50;4.03;;;;;;;;;;5031408;28;20280;-77
2023/05/14 10:06:29;;;;;;;4.10;3.70;;;;;;;;;;5028504;28;20111;-76
2023/05/14 10:09:01;;;;;;;6.55;3.97;;;;;;;;;;5025619;28;20045;-77
2023/05/14 10:11:31;;;;;;;4.55;4.15;;;;;;;;;;5038741;28;20051;-80
2023/05/14 10:13:59;;;;;;;5.05;4.30;;;;;;;;;;5027393;28;20025;-79
2023/05/14 10:16:32;;;;;;;4.78;3.97;;;;;;;;;;5034223;28;20037;-77
2023/05/14 10:19:06;;;;;;;4.25;3.95;;;;;;;;;;5028189;28;20171;-78
2023/05/14 10:21:34;;;;;;;4.78;4.30;;;;;;;;;;5036922;28;20030;-79
2023/05/14 10:24:01;;;;;;;4.40;3.95;;;;;;;;;;5027723;28;20143;-79
2023/05/14 10:26:27;;;;;;;7.45;4.13;;;;;;;;;;5034849;28;20108;-76
2023/05/14 10:28:53;;;;;;;4.38;4.07;;;;;;;;;;5028794;28;20021;-78
2023/05/14 10:31:22;;;;;;;4.15;3.75;;;;;;;;;;5035624;28;20024;-78
2023/05/14 10:33:49;;;;;;;4.70;3.95;;;;;;;;;;5032582;28;20052;-78
2023/05/14 10:36:17;;;;;;;5.65;4.38;;;;;;;;;;5027293;28;20053;-78
2023/05/14 10:38:43;;;;;;;4.15;3.75;;;;;;;;;;5031440;28;20096;-79
2023/05/14 10:41:16;;;;;;;4.35;3.95;;;;;;;;;;5034867;28;20674;-78
2023/05/14 10:43:42;;;;;;;4.05;3.65;;;;;;;;;;5050050;28;20091;-78
2023/05/14 10:46:10;;;;;;;4.57;4.18;;;;;;;;;;5029967;28;20206;-78
2023/05/14 10:48:41;;;;;;;5.18;4.15;;;;;;;;;;5026973;28;20029;-77
2023/05/14 10:51:09;;;;;;;4.38;3.97;;;;;;;;;;5030542;28;20048;-77
2023/05/14 10:53:40;;;;;;;5.72;4.13;;;;;;;;;;5031292;28;20029;-77
2023/05/14 10:56:07;;;;;;;4.65;4.18;;;;;;;;;;5030504;28;20086;-77
2023/05/14 10:58:38;;;;;;;4.50;4.10;;;;;;;;;;5022847;28;20148;-78
2023/05/14 11:01:05;;;;;;;5.30;4.10;;;;;;;;;;5026585;28;20022;-78
2023/05/14 11:03:37;;;;;;;4.53;4.07;;;;;;;;;;5028336;28;20044;-78
2023/05/14 11:06:03;;;;;;;5.80;4.20;;;;;;;;;;5041981;28;20403;-77
2023/05/14 11:08:30;;;;;;;23.77;15.10;;;;;;;;;;5040090;28;20028;-78
2023/05/14 11:10:56;;;;;;;4.53;4.00;;;;;;;;;;5035867;28;20033;-77
2023/05/14 11:13:21;;;;;;;5.78;4.35;;;;;;;;;;5030798;28;20028;-77
2023/05/14 11:15:48;;;;;;;5.43;3.78;;;;;;;;;;5031350;28;20037;-77
2023/05/14 11:18:24;;;;;;;4.28;3.88;;;;;;;;;;5034642;28;20490;-77
2023/05/14 11:20:51;;;;;;;4.30;3.90;;;;;;;;;;5032330;28;20029;-76
2023/05/14 11:23:16;;;;;;;5.30;4.13;;;;;;;;;;5033181;28;20025;-77
2023/05/14 11:25:42;;;;;;;5.25;3.85;;;;;;;;;;5034714;28;20033;-78
2023/05/14 11:28:07;;;;;;;4.30;3.90;;;;;;;;;;5041862;28;20021;-78
2023/05/14 11:30:33;;;;;;;4.75;3.65;;;;;;;;;;5041919;28;20049;-77
2023/05/14 11:32:59;;;;;;;4.80;4.18;;;;;;;;;;5038395;28;20083;-77
2023/05/14 11:35:24;;;;;;;41.63;37.50;;;;;;;;;;5039962;28;20033;-77
2023/05/14 11:37:53;;;;;;;5.57;4.25;;;;;;;;;;5037846;28;20064;-77
2023/05/14 11:40:19;;;;;;;4.32;3.70;;;;;;;;;;5031143;28;20025;-77
2023/05/14 11:42:45;;;;;;;4.40;4.00;;;;;;;;;;5033478;28;20039;-77
2023/05/14 11:45:11;;;;;;;4.75;4.15;;;;;;;;;;5035312;28;20577;-78
2023/05/14 11:47:37;;;;;;;4.80;4.30;;;;;;;;;;5032615;28;20083;-78
2023/05/14 11:50:02;;;;;;;4.28;3.83;;;;;;;;;;5046930;28;20021;-77
2023/05/14 11:52:28;;;;;;;6.80;5.82;;;;;;;;;;5039553;28;20025;-78
2023/05/14 11:54:53;;;;;;;5.03;4.13;;;;;;;;;;5033858;28;20052;-78
2023/05/14 11:57:20;;;;;;;4.65;4.25;;;;;;;;;;5058380;28;20036;-77
2023/05/14 11:59:47;;;;;;;4.55;4.13;;;;;;;;;;5037159;28;20018;-78
2023/05/14 12:02:17;;;;;;;4.20;3.80;;;;;;;;;;5042725;28;20071;-78
2023/05/14 12:04:43;;;;;;;4.13;3.72;;;;;;;;;;5032977;28;20021;-77
2023/05/14 12:07:14;;;;;;;4.85;4.32;;;;;;;;;;5034225;28;20037;-77
2023/05/14 12:09:48;;;;;;;4.18;3.80;;;;;;;;;;5031052;28;20052;-77
2023/05/14 12:12:14;;;;;;;4.10;3.72;;;;;;;;;;5039878;28;20029;-78
2023/05/14 12:14:41;;;;;;;3.95;3.55;;;;;;;;;;5040338;28;20092;-77
2023/05/14 12:17:14;;;;;;;5.28;3.97;;;;;;;;;;5031280;28;20490;-77
2023/05/14 12:19:40;;;;;;;3.80;3.50;;;;;;;;;;5030498;28;20033;-77
2023/05/14 12:22:07;;;;;;;5.80;3.70;;;;;;;;;;5030164;28;20028;-76
2023/05/14 12:24:35;;;;;;;4.07;3.70;;;;;;;;;;5037940;28;20037;-78
2023/05/14 12:27:01;;;;;;;4.60;4.10;;;;;;;;;;5038385;28;20017;-78
2023/05/14 12:29:26;;;;;;;4.20;3.80;;;;;;;;;;5035422;28;20027;-78
2023/05/14 12:31:52;;;;;;;4.28;3.88;;;;;;;;;;5032709;28;20116;-77
2023/05/14 12:34:17;;;;;;;52.25;6.63;;;;;;;;;;5031555;28;20138;-78
2023/05/14 12:36:43;;;;;;;4.20;3.80;;;;;;;;;;5033186;28;20036;-77
2023/05/14 12:39:09;;;;;;;4.57;3.80;;;;;;;;;;5035238;28;20029;-76
2023/05/14 12:41:35;;;;;;;3.80;3.50;;;;;;;;;;5053675;28;20023;-77
2023/05/14 12:44:03;;;;;;;3.45;3.15;;;;;;;;;;5034338;28;20101;-77
2023/05/14 12:46:28;;;;;;;3.03;2.78;;;;;;;;;;5028874;28;20195;-78
2023/05/14 12:48:54;;;;;;;3.00;2.78;;;;;;;;;;5034225;28;20483;-77
2023/05/14 12:51:20;;;;;;;5.07;3.42;;;;;;;;;;5034170;28;20551;-77
2023/05/14 12:53:46;;;;;;;3.50;3.20;;;;;;;;;;5033951;28;20598;-78
2023/05/14 12:56:12;;;;;;;3.38;2.83;;;;;;;;;;5039525;28;20025;-78
2023/05/14 12:58:38;;;;;;;3.50;3.20;;;;;;;;;;5031692;28;20047;-75
2023/05/14 13:01:04;;;;;;;3.00;2.40;;;;;;;;;;5030861;28;20089;-78
2023/05/14 13:03:29;;;;;;;2.45;2.25;;;;;;;;;;5027761;28;20120;-78
2023/05/14 13:05:55;;;;;;;2.40;2.20;;;;;;;;;;5028533;28;20032;-77
2023/05/14 13:08:23;;;;;;;1.60;1.33;;;;;;;;;;5036122;28;20024;-78
2023/05/14 13:10:50;;;;;;;2.00;1.58;;;;;;;;;;5037814;28;20033;-77
2023/05/14 13:13:15;;;;;;;2.22;1.60;;;;;;;;;;5020594;28;20028;-77
2023/05/14 13:15:41;;;;;;;2.17;2.00;;;;;;;;;;5025506;28;20104;-77
2023/05/14 13:18:07;;;;;;;2.58;2.38;;;;;;;;;;5024387;28;20036;-78
2023/05/14 13:20:33;;;;;;;2.72;2.50;;;;;;;;;;5024240;28;20021;-77
2023/05/14 13:22:58;;;;;;;4.05;3.60;;;;;;;;;;5030895;28;20055;-76
2023/05/14 13:25:24;;;;;;;5.75;3.30;;;;;;;;;;5023277;28;20538;-77
2023/05/14 13:27:49;;;;;;;3.60;3.30;;;;;;;;;;5023350;28;20036;-78
2023/05/14 13:30:19;;;;;;;2.80;2.55;;;;;;;;;;5026280;28;20442;-77
2023/05/14 13:32:44;;;;;;;5.00;3.15;;;;;;;;;;5033414;28;20033;-77
2023/05/14 13:35:10;;;;;;;3.15;2.95;;;;;;;;;;5032612;28;20576;-77
2023/05/14 13:37:36;;;;;;;5.28;2.72;;;;;;;;;;5021116;28;20104;-76
2023/05/14 13:40:03;;;;;;;3.15;2.90;;;;;;;;;;5031886;28;20109;-76
2023/05/14 13:42:29;;;;;;;3.10;2.50;;;;;;;;;;5027002;28;20478;-78
2023/05/14 13:44:55;;;;;;;3.63;3.00;;;;;;;;;;5027048;28;20068;-78
2023/05/14 13:47:20;;;;;;;4.82;4.43;;;;;;;;;;5029741;28;20505;-75
2023/05/14 13:49:46;;;;;;;4.20;3.80;;;;;;;;;;5016520;28;20033;-78
2023/05/14 13:52:11;;;;;;;4.38;3.40;;;;;;;;;;5018281;28;20152;-77
2023/05/14 13:54:36;;;;;;;3.97;3.42;;;;;;;;;;5028486;28;20053;-76
2023/05/14 13:57:02;;;;;;;4.20;3.80;;;;;;;;;;5017997;28;20049;-77
2023/05/14 13:59:27;;;;;;;3.80;3.50;;;;;;;;;;5020815;28;20370;-76
2023/05/14 14:01:53;;;;;;;3.80;3.50;;;;;;;;;;5026033;28;20033;-77
2023/05/14 14:04:18;;;;;;;3.45;3.15;;;;;;;;;;5044051;28;21954;-76
2023/05/14 14:06:45;;;;;;;5.10;3.25;;;;;;;;;;5019935;28;20017;-76
2023/05/14 14:09:12;;;;;;;3.20;2.92;;;;;;;;;;5016012;28;20088;-78
2023/05/14 14:11:39;;;;;;;3.80;3.45;;;;;;;;;;5021306;28;20049;-75
2023/05/14 14:14:04;;;;;;;3.63;3.33;;;;;;;;;;5024542;28;20065;-76
2023/05/14 14:16:29;;;;;;;3.35;3.05;;;;;;;;;;5018522;28;20453;-77
2023/05/14 14:18:56;;;;;;;4.97;3.25;;;;;;;;;;5023023;28;20044;-75
2023/05/14 14:21:21;;;;;;;3.95;3.65;;;;;;;;;;5035664;28;20025;-74
2023/05/14 14:23:47;;;;;;;3.80;3.50;;;;;;;;;;5024671;28;20052;-78
2023/05/14 14:26:12;;;;;;;3.33;3.10;;;;;;;;;;5026722;28;20025;-76
2023/05/14 14:28:39;;;;;;;3.65;3.35;;;;;;;;;;5016556;28;20026;-76
2023/05/14 14:31:05;;;;;;;3.97;3.67;;;;;;;;;;5016550;28;20092;-77
2023/05/14 14:33:31;;;;;;;3.58;3.28;;;;;;;;;;5017067;28;20037;-77
2023/05/14 14:35:56;;;;;;;4.28;3.30;;;;;;;;;;5024034;28;20038;-76
2023/05/14 14:38:21;;;;;;;4.00;3.58;;;;;;;;;;5023172;28;20021;-78
2023/05/14 14:40:47;;;;;;;3.80;3.50;;;;;;;;;;5017994;28;20402;-78